createdAt,value
2023-04-18T00:00:06.424Z,10.64
2023-04-18T00:03:00.211Z,10.66
2023-04-18T00:05:29.045Z,10.65
2023-04-18T00:07:56.092Z,10.64
2023-04-18T00:10:23.179Z,10.64
2023-04-18T00:12:50.928Z,10.64
2023-04-18T00:15:18.086Z,10.63
2023-04-18T00:17:45.157Z,10.63
2023-04-18T00:20:12.480Z,10.62
2023-04-18T00:22:41.867Z,10.62
2023-04-18T00:25:09.919Z,10.61
2023-04-18T00:27:37.669Z,10.57
2023-04-18T00:30:08.065Z,10.49
2023-04-18T00:32:37.708Z,10.42
2023-04-18T00:35:04.898Z,10.34
2023-04-18T00:37:31.823Z,10.28
2023-04-18T00:39:58.622Z,10.23
2023-04-18T00:42:27.379Z,10.19
2023-04-18T00:44:54.302Z,10.15
2023-04-18T00:47:21.336Z,10.11
2023-04-18T00:49:49.091Z,10.05
2023-04-18T00:52:18.085Z,9.99
2023-04-18T00:54:44.913Z,9.95
2023-04-18T00:57:12.002Z,9.90
2023-04-18T00:59:38.862Z,9.81
2023-04-18T01:02:07.927Z,9.73
2023-04-18T01:04:35.292Z,9.65
2023-04-18T01:07:02.974Z,9.59
2023-04-18T01:09:30.434Z,9.51
2023-04-18T01:11:57.381Z,9.43
2023-04-18T01:14:24.429Z,9.34
2023-04-18T01:16:51.478Z,9.24
2023-04-18T01:19:19.208Z,9.18
2023-04-18T01:21:46.924Z,9.14
2023-04-18T01:24:15.186Z,9.09
2023-04-18T01:26:43.575Z,9.03
2023-04-18T01:29:10.854Z,9.01
2023-04-18T01:31:38.345Z,8.98
2023-04-18T01:34:05.893Z,8.92
2023-04-18T01:36:33.367Z,8.85
2023-04-18T01:39:00.691Z,8.82
2023-04-18T01:41:31.864Z,8.80
2023-04-18T01:43:58.998Z,8.79
2023-04-18T01:46:26.537Z,8.77
2023-04-18T01:48:54.879Z,8.73
2023-04-18T01:51:22.101Z,8.69
2023-04-18T01:53:49.264Z,8.66
2023-04-18T01:56:16.412Z,8.61
2023-04-18T01:58:43.466Z,8.59
2023-04-18T02:01:10.614Z,8.58
2023-04-18T02:03:38.988Z,8.58
2023-04-18T02:06:06.580Z,8.59
2023-04-18T02:08:35.256Z,8.58
2023-04-18T02:11:04.780Z,8.57
2023-04-18T02:13:32.142Z,8.56
2023-04-18T02:15:59.276Z,8.54
2023-04-18T02:18:26.557Z,8.52
2023-04-18T02:20:53.617Z,8.52
2023-04-18T02:23:21.820Z,8.51
2023-04-18T02:25:48.879Z,8.50
2023-04-18T02:28:17.543Z,8.47
2023-04-18T02:30:44.989Z,8.45
2023-04-18T02:33:12.508Z,8.44
2023-04-18T02:35:40.214Z,8.42
2023-04-18T02:38:07.243Z,8.40
2023-04-18T02:40:34.156Z,8.41
2023-04-18T02:43:02.087Z,8.40
2023-04-18T02:45:29.038Z,8.41
2023-04-18T02:47:57.834Z,8.38
2023-04-18T02:50:24.938Z,8.38
2023-04-18T02:52:52.774Z,8.37
2023-04-18T02:55:21.476Z,8.37
2023-04-18T02:57:48.602Z,8.36
2023-04-18T03:00:38.785Z,8.34
2023-04-18T03:03:24.668Z,8.33
2023-04-18T03:06:07.272Z,8.32
2023-04-18T03:08:34.525Z,8.28
2023-04-18T03:11:01.522Z,8.27
2023-04-18T03:13:29.166Z,8.23
2023-04-18T03:15:56.175Z,8.19
2023-04-18T03:18:23.205Z,8.16
2023-04-18T03:20:50.922Z,8.13
2023-04-18T03:23:17.976Z,8.12
2023-04-18T03:25:45.737Z,8.10
2023-04-18T03:28:12.793Z,8.01
2023-04-18T03:30:39.950Z,7.96
2023-04-18T03:33:07.411Z,7.94
2023-04-18T03:35:34.977Z,7.91
2023-04-18T03:38:02.228Z,7.89
2023-04-18T03:40:31.059Z,7.83
2023-04-18T03:43:02.494Z,7.79
2023-04-18T03:45:29.737Z,7.77
2023-04-18T03:47:56.741Z,7.75
2023-04-18T03:50:25.286Z,7.72
2023-04-18T03:52:53.152Z,7.67
2023-04-18T03:55:20.313Z,7.63
2023-04-18T03:57:47.668Z,7.59
2023-04-18T04:00:20.350Z,7.58
2023-04-18T04:02:58.462Z,7.53
2023-04-18T04:05:25.508Z,7.49
2023-04-18T04:07:52.537Z,7.47
2023-04-18T04:10:20.024Z,7.48
2023-04-18T04:12:47.797Z,7.51
2023-04-18T04:15:14.784Z,7.55
2023-04-18T04:17:46.950Z,7.61
2023-04-18T04:20:14.488Z,7.66
2023-04-18T04:22:42.355Z,7.71
2023-04-18T04:25:10.025Z,7.76
2023-04-18T04:27:39.067Z,7.82
2023-04-18T04:30:08.328Z,7.87
2023-04-18T04:32:36.012Z,7.93
2023-04-18T04:35:04.066Z,7.99
2023-04-18T04:37:33.064Z,8.05
2023-04-18T04:40:08.812Z,8.11
2023-04-18T04:43:12.017Z,8.18
2023-04-18T04:45:44.080Z,8.26
2023-04-18T04:48:11.218Z,8.35
2023-04-18T04:50:40.613Z,8.44
2023-04-18T04:53:08.189Z,8.54
2023-04-18T04:55:35.555Z,8.66
2023-04-18T04:58:02.815Z,8.78
2023-04-18T05:00:38.246Z,8.90
2023-04-18T05:03:06.637Z,9.04
2023-04-18T05:05:33.890Z,9.17
2023-04-18T05:08:00.998Z,9.27
2023-04-18T05:10:27.846Z,9.38
2023-04-18T05:12:54.949Z,9.49
2023-04-18T05:15:22.785Z,9.57
2023-04-18T05:17:49.732Z,9.66
2023-04-18T05:20:16.795Z,9.74
2023-04-18T05:22:43.719Z,9.80
2023-04-18T05:25:11.799Z,9.84
2023-04-18T05:27:38.762Z,9.90
2023-04-18T05:30:06.304Z,9.95
2023-04-18T05:32:33.259Z,10.03
2023-04-18T05:35:00.145Z,10.11
2023-04-18T05:37:27.108Z,10.21
2023-04-18T05:39:53.957Z,10.30
2023-04-18T05:42:20.760Z,10.42
2023-04-18T05:44:47.709Z,10.53
2023-04-18T05:47:14.561Z,10.66
2023-04-18T05:49:41.416Z,10.80
2023-04-18T05:52:08.399Z,10.97
2023-04-18T05:54:35.298Z,11.12
2023-04-18T05:57:04.243Z,11.26
2023-04-18T05:59:31.546Z,11.41
2023-04-18T06:01:58.392Z,11.56
2023-04-18T06:04:25.443Z,11.70
2023-04-18T06:06:52.462Z,11.82
2023-04-18T06:09:19.506Z,11.90
2023-04-18T06:11:46.401Z,11.97
2023-04-18T06:14:13.628Z,12.05
2023-04-18T06:16:40.967Z,12.13
2023-04-18T06:19:07.933Z,12.20
2023-04-18T06:21:34.888Z,12.30
2023-04-18T06:24:01.944Z,12.38
2023-04-18T06:26:31.557Z,12.43
2023-04-18T06:28:58.507Z,12.48
2023-04-18T06:31:25.628Z,12.54
2023-04-18T06:33:52.825Z,12.60
2023-04-18T06:36:19.894Z,12.68
2023-04-18T06:38:46.820Z,12.78
2023-04-18T06:41:14.395Z,12.88
2023-04-18T06:43:49.134Z,12.97
2023-04-18T06:46:26.752Z,13.08
2023-04-18T06:48:53.968Z,13.17
2023-04-18T06:51:20.921Z,13.23
2023-04-18T06:53:48.070Z,13.28
2023-04-18T06:56:15.331Z,13.37
2023-04-18T06:58:42.282Z,13.45
2023-04-18T07:01:09.382Z,13.53
2023-04-18T07:03:36.475Z,13.63
2023-04-18T07:06:04.667Z,13.72
2023-04-18T07:08:32.845Z,13.81
2023-04-18T07:10:59.797Z,13.87
2023-04-18T07:13:26.853Z,13.95
2023-04-18T07:15:54.111Z,14.04
2023-04-18T07:18:34.192Z,14.13
2023-04-18T07:21:08.372Z,14.24
2023-04-18T07:23:35.539Z,14.36
2023-04-18T07:26:02.993Z,14.50
2023-04-18T07:28:30.521Z,14.64
2023-04-18T07:30:58.084Z,14.77
2023-04-18T07:33:25.115Z,14.88
2023-04-18T07:35:52.569Z,14.99
2023-04-18T07:38:19.668Z,15.11
2023-04-18T07:40:46.638Z,15.20
2023-04-18T07:43:13.634Z,15.32
2023-04-18T07:45:42.648Z,15.46
2023-04-18T07:48:10.655Z,15.58
2023-04-18T07:50:37.507Z,15.66
2023-04-18T07:53:04.661Z,15.76
2023-04-18T07:55:31.608Z,15.84
2023-04-18T07:57:58.439Z,15.90
2023-04-18T08:00:25.881Z,15.96
2023-04-18T08:02:52.924Z,16.03
2023-04-18T08:05:20.360Z,16.13
2023-04-18T08:07:47.209Z,16.21
2023-04-18T08:10:14.161Z,16.28
2023-04-18T08:12:41.675Z,16.41
2023-04-18T08:15:08.656Z,16.54
2023-04-18T08:17:36.042Z,16.71
2023-04-18T08:20:06.726Z,16.92
2023-04-18T08:22:33.637Z,17.11
2023-04-18T08:25:04.832Z,17.26
2023-04-18T08:27:32.716Z,17.43
2023-04-18T08:30:00.045Z,17.60
2023-04-18T08:32:26.931Z,17.77
2023-04-18T08:34:53.898Z,17.99
2023-04-18T08:37:20.748Z,18.24
2023-04-18T08:39:47.795Z,18.51
2023-04-18T08:42:33.776Z,18.67
2023-04-18T08:45:00.947Z,18.72
2023-04-18T08:47:31.230Z,18.69
2023-04-18T08:49:58.191Z,18.71
2023-04-18T08:52:49.047Z,18.92
2023-04-18T08:55:16.348Z,19.12
2023-04-18T08:58:01.638Z,19.21
2023-04-18T09:00:51.657Z,19.44
2023-04-18T09:03:39.230Z,19.52
2023-04-18T09:06:13.436Z,19.68
2023-04-18T09:08:58.773Z,19.81
2023-04-18T09:11:28.234Z,19.80
2023-04-18T09:13:55.972Z,19.77
2023-04-18T09:16:23.115Z,19.83
2023-04-18T09:19:13.594Z,19.99
2023-04-18T09:21:42.131Z,20.39
2023-04-18T09:24:20.336Z,20.83
2023-04-18T09:26:49.427Z,21.23
2023-04-18T09:29:17.946Z,21.52
2023-04-18T09:31:55.551Z,21.71
2023-04-18T09:34:25.924Z,22.06
2023-04-18T09:37:07.292Z,22.41
2023-04-18T09:39:34.394Z,22.58
2023-04-18T09:42:02.040Z,22.81
2023-04-18T09:44:29.059Z,22.94
2023-04-18T09:46:56.061Z,22.99
2023-04-18T09:49:23.310Z,23.11
2023-04-18T09:51:51.748Z,23.09
2023-04-18T09:54:20.281Z,23.24
2023-04-18T09:56:50.027Z,23.45
2023-04-18T09:59:35.874Z,23.66
2023-04-18T10:02:07.510Z,23.87
2023-04-18T10:04:35.269Z,24.19
2023-04-18T10:07:02.940Z,24.49
2023-04-18T10:09:32.720Z,24.57
2023-04-18T10:12:02.105Z,24.63
2023-04-18T10:14:31.001Z,24.73
2023-04-18T10:16:58.959Z,24.88
2023-04-18T10:19:27.273Z,25.07
2023-04-18T10:21:55.526Z,25.26
2023-04-18T10:24:41.116Z,25.40
2023-04-18T10:27:08.454Z,25.37
2023-04-18T10:29:49.633Z,25.51
2023-04-18T10:32:18.219Z,25.82
2023-04-18T10:34:48.868Z,25.77
2023-04-18T10:37:17.254Z,25.56
2023-04-18T10:39:53.296Z,25.56
2023-04-18T10:42:40.203Z,25.64
2023-04-18T10:45:23.432Z,25.62
2023-04-18T10:47:50.547Z,25.70
2023-04-18T10:50:17.749Z,25.74
2023-04-18T10:52:44.995Z,25.82
2023-04-18T10:55:16.779Z,25.77
2023-04-18T10:57:45.351Z,25.60
2023-04-18T11:00:14.263Z,25.30
2023-04-18T11:02:47.949Z,24.79
2023-04-18T11:05:18.898Z,24.15
2023-04-18T11:07:47.951Z,23.73
2023-04-18T11:10:19.674Z,23.67
2023-04-18T11:12:47.112Z,23.84
2023-04-18T11:15:17.236Z,24.12
2023-04-18T11:17:44.472Z,24.28
2023-04-18T11:20:14.217Z,24.44
2023-04-18T11:22:48.727Z,24.57
2023-04-18T11:25:16.461Z,24.77
2023-04-18T11:27:44.576Z,24.87
2023-04-18T11:30:12.347Z,25.10
2023-04-18T11:32:39.396Z,25.13
2023-04-18T11:35:13.207Z,25.16
2023-04-18T11:37:41.072Z,25.18
2023-04-18T11:40:11.809Z,25.34
2023-04-18T11:42:39.292Z,25.50
2023-04-18T11:45:13.764Z,25.54
2023-04-18T11:47:42.226Z,25.46
2023-04-18T11:50:10.856Z,25.35
2023-04-18T11:52:38.871Z,25.55
2023-04-18T11:55:20.746Z,25.74
2023-04-18T11:57:53.582Z,25.90
2023-04-18T12:00:30.484Z,26.07
2023-04-18T12:02:58.696Z,26.14
2023-04-18T12:05:27.149Z,26.15
2023-04-18T12:07:55.118Z,25.93
2023-04-18T12:10:21.979Z,25.83
2023-04-18T12:12:49.802Z,25.85
2023-04-18T12:15:17.244Z,25.86
2023-04-18T12:17:44.762Z,26.00
2023-04-18T12:20:12.802Z,26.24
2023-04-18T12:22:49.654Z,26.28
2023-04-18T12:25:22.822Z,26.24
2023-04-18T12:27:57.303Z,26.37
2023-04-18T12:30:36.799Z,26.33
2023-04-18T12:33:04.655Z,25.87
2023-04-18T12:35:31.757Z,25.43
2023-04-18T12:37:59.779Z,24.99
2023-04-18T12:40:27.200Z,24.48
2023-04-18T12:42:54.861Z,24.13
2023-04-18T12:45:22.410Z,24.09
2023-04-18T12:47:50.298Z,24.15
2023-04-18T12:50:18.249Z,24.27
2023-04-18T12:52:45.247Z,24.43
2023-04-18T12:55:12.530Z,24.53
2023-04-18T12:57:40.770Z,24.72
2023-04-18T13:00:12.435Z,24.84
2023-04-18T13:02:40.611Z,24.86
2023-04-18T13:05:08.430Z,24.97
2023-04-18T13:07:37.260Z,25.10
2023-04-18T13:10:04.409Z,25.36
2023-04-18T13:12:31.234Z,25.40
2023-04-18T13:14:58.151Z,25.16
2023-04-18T13:17:25.489Z,25.12
2023-04-18T13:19:52.465Z,25.37
2023-04-18T13:22:19.978Z,25.68
2023-04-18T13:24:47.346Z,25.67
2023-04-18T13:27:14.350Z,25.51
2023-04-18T13:29:42.112Z,25.25
2023-04-18T13:32:09.268Z,25.20
2023-04-18T13:34:39.155Z,25.35
2023-04-18T13:37:06.133Z,25.32
2023-04-18T13:39:33.362Z,25.30
2023-04-18T13:42:02.731Z,25.23
2023-04-18T13:44:30.352Z,25.22
2023-04-18T13:46:57.437Z,25.19
2023-04-18T13:49:24.272Z,25.15
2023-04-18T13:51:52.972Z,25.00
2023-04-18T13:54:20.125Z,24.99
2023-04-18T13:56:46.988Z,25.01
2023-04-18T13:59:14.149Z,24.85
2023-04-18T14:01:41.919Z,24.53
2023-04-18T14:04:09.061Z,24.29
2023-04-18T14:06:36.066Z,24.07
2023-04-18T14:09:03.305Z,23.71
2023-04-18T14:11:30.170Z,23.27
2023-04-18T14:13:57.109Z,22.90
2023-04-18T14:16:24.035Z,22.69
2023-04-18T14:18:51.060Z,22.52
2023-04-18T14:21:17.939Z,22.29
2023-04-18T14:23:44.720Z,22.18
2023-04-18T14:26:11.594Z,22.15
2023-04-18T14:28:38.526Z,22.07
2023-04-18T14:31:06.087Z,22.04
2023-04-18T14:33:35.669Z,21.94
2023-04-18T14:36:02.716Z,21.92
2023-04-18T14:38:29.661Z,21.98
2023-04-18T14:40:56.994Z,22.09
2023-04-18T14:43:24.210Z,22.13
2023-04-18T14:45:51.453Z,22.07
2023-04-18T14:48:18.458Z,21.92
2023-04-18T14:50:45.266Z,21.77
2023-04-18T14:53:12.185Z,21.58
2023-04-18T14:55:39.049Z,21.56
2023-04-18T14:58:05.917Z,21.55
2023-04-18T15:00:32.886Z,21.32
2023-04-18T15:03:00.291Z,21.00
2023-04-18T15:05:27.406Z,20.78
2023-04-18T15:07:55.549Z,20.62
2023-04-18T15:10:22.474Z,20.50
2023-04-18T15:12:50.597Z,20.49
2023-04-18T15:15:18.368Z,20.46
2023-04-18T15:17:45.288Z,20.33
2023-04-18T15:20:12.536Z,20.22
2023-04-18T15:22:39.419Z,20.14
2023-04-18T15:25:06.850Z,20.03
2023-04-18T15:27:33.707Z,19.96
2023-04-18T15:30:01.841Z,20.00
2023-04-18T15:32:28.719Z,19.94
2023-04-18T15:34:55.927Z,19.77
2023-04-18T15:37:23.184Z,19.52
2023-04-18T15:39:50.062Z,19.30
2023-04-18T15:42:16.965Z,19.13
2023-04-18T15:44:43.915Z,19.06
2023-04-18T15:47:10.754Z,18.98
2023-04-18T15:49:37.570Z,18.90
2023-04-18T15:52:05.888Z,18.79
2023-04-18T15:54:32.793Z,18.67
2023-04-18T15:56:59.719Z,18.49
2023-04-18T15:59:26.523Z,18.35
2023-04-18T16:01:53.477Z,18.20
2023-04-18T16:04:20.678Z,17.96
2023-04-18T16:06:47.537Z,17.74
2023-04-18T16:09:15.656Z,17.51
2023-04-18T16:11:42.673Z,17.28
2023-04-18T16:14:09.509Z,17.08
2023-04-18T16:16:36.533Z,16.84
2023-04-18T16:19:04.881Z,16.66
2023-04-18T16:21:32.092Z,16.51
2023-04-18T16:23:59.312Z,16.33
2023-04-18T16:26:26.195Z,16.17
2023-04-18T16:28:53.095Z,16.09
2023-04-18T16:31:20.167Z,16.00
2023-04-18T16:33:47.145Z,15.88
2023-04-18T16:36:14.087Z,15.73
2023-04-18T16:38:40.946Z,15.58
2023-04-18T16:41:07.896Z,15.45
2023-04-18T16:43:37.524Z,15.33
2023-04-18T16:46:04.576Z,15.21
2023-04-18T16:48:31.577Z,15.12
2023-04-18T16:50:58.599Z,14.97
2023-04-18T16:53:25.549Z,14.84
2023-04-18T16:55:55.281Z,14.69
2023-04-18T16:58:22.987Z,14.56
2023-04-18T17:00:49.960Z,14.44
2023-04-18T17:03:16.993Z,14.33
2023-04-18T17:05:44.074Z,14.22
2023-04-18T17:08:10.922Z,14.11
2023-04-18T17:10:37.737Z,14.01
2023-04-18T17:13:04.554Z,13.88
2023-04-18T17:15:31.576Z,13.78
2023-04-18T17:18:00.627Z,13.68
2023-04-18T17:20:27.853Z,13.57
2023-04-18T17:22:54.883Z,13.48
2023-04-18T17:25:21.882Z,13.40
2023-04-18T17:27:48.776Z,13.28
2023-04-18T17:30:15.748Z,13.19
2023-04-18T17:32:45.409Z,13.09
2023-04-18T17:35:16.606Z,12.95
2023-04-18T17:37:43.547Z,12.85
2023-04-18T17:40:11.388Z,12.77
2023-04-18T17:42:38.413Z,12.71
2023-04-18T17:45:07.040Z,12.65
2023-04-18T17:47:35.833Z,12.61
2023-04-18T17:50:06.307Z,12.58
2023-04-18T17:52:33.250Z,12.52
2023-04-18T17:55:03.610Z,12.47
2023-04-18T17:57:32.447Z,12.42
2023-04-18T17:59:59.369Z,12.36
2023-04-18T18:02:27.815Z,12.31
2023-04-18T18:04:55.820Z,12.26
2023-04-18T18:07:22.577Z,12.22
2023-04-18T18:09:49.502Z,12.19
2023-04-18T18:12:16.782Z,12.15
2023-04-18T18:14:43.586Z,12.11
2023-04-18T18:17:10.840Z,12.06
2023-04-18T18:19:38.144Z,12.00
2023-04-18T18:22:05.651Z,11.96
2023-04-18T18:24:32.566Z,11.92
2023-04-18T18:26:59.538Z,11.89
2023-04-18T18:29:26.527Z,11.84
2023-04-18T18:31:53.344Z,11.79
2023-04-18T18:34:21.194Z,11.73
2023-04-18T18:36:48.148Z,11.67
2023-04-18T18:39:15.923Z,11.62
2023-04-18T18:41:43.037Z,11.57
2023-04-18T18:44:11.007Z,11.53
2023-04-18T18:46:37.976Z,11.49
2023-04-18T18:49:04.911Z,11.45
2023-04-18T18:51:32.335Z,11.41
2023-04-18T18:53:59.239Z,11.38
2023-04-18T18:56:26.079Z,11.34
2023-04-18T18:58:53.878Z,11.32
2023-04-18T19:01:20.791Z,11.29
2023-04-18T19:03:47.802Z,11.26
2023-04-18T19:06:15.224Z,11.25
2023-04-18T19:08:42.180Z,11.25
2023-04-18T19:11:09.766Z,11.25
2023-04-18T19:13:36.679Z,11.23
2023-04-18T19:16:03.605Z,11.21
2023-04-18T19:18:30.560Z,11.21
2023-04-18T19:20:57.503Z,11.20
2023-04-18T19:23:24.755Z,11.19
2023-04-18T19:25:51.679Z,11.19
2023-04-18T19:28:18.565Z,11.19
2023-04-18T19:30:45.924Z,11.17
2023-04-18T19:33:13.109Z,11.16
2023-04-18T19:35:40.094Z,11.16
2023-04-18T19:38:07.077Z,11.17
2023-04-18T19:40:33.967Z,11.18
2023-04-18T19:43:00.797Z,11.18
2023-04-18T19:45:27.658Z,11.18
2023-04-18T19:47:54.514Z,11.16
2023-04-18T19:50:21.497Z,11.15
2023-04-18T19:52:48.386Z,11.14
2023-04-18T19:55:15.859Z,11.13
2023-04-18T19:57:43.436Z,11.13
2023-04-18T20:00:12.130Z,11.12
2023-04-18T20:02:44.719Z,11.12
2023-04-18T20:05:12.430Z,11.11
2023-04-18T20:07:40.863Z,11.11
2023-04-18T20:10:08.539Z,11.12
2023-04-18T20:12:35.412Z,11.11
2023-04-18T20:15:02.423Z,11.12
2023-04-18T20:17:33.995Z,11.13
2023-04-18T20:20:00.911Z,11.12
2023-04-18T20:22:27.902Z,11.13
2023-04-18T20:24:56.581Z,11.13
2023-04-18T20:27:23.584Z,11.11
2023-04-18T20:29:50.468Z,11.09
2023-04-18T20:32:17.525Z,11.06
2023-04-18T20:34:46.056Z,11.02
2023-04-18T20:37:15.428Z,10.96
2023-04-18T20:39:42.457Z,10.92
2023-04-18T20:42:13.671Z,10.86
2023-04-18T20:44:46.162Z,10.78
2023-04-18T20:47:15.261Z,10.70
2023-04-18T20:49:42.873Z,10.63
2023-04-18T20:52:09.861Z,10.59
2023-04-18T20:54:36.886Z,10.54
2023-04-18T20:57:03.834Z,10.49
2023-04-18T20:59:30.825Z,10.46
2023-04-18T21:01:57.904Z,10.45
2023-04-18T21:04:25.386Z,10.44
2023-04-18T21:06:52.396Z,10.44
2023-04-18T21:09:19.324Z,10.44
2023-04-18T21:11:46.296Z,10.43
2023-04-18T21:14:13.321Z,10.43
2023-04-18T21:16:40.534Z,10.40
2023-04-18T21:19:08.049Z,10.36
2023-04-18T21:21:35.027Z,10.33
2023-04-18T21:24:02.152Z,10.34
2023-04-18T21:26:29.121Z,10.32
2023-04-18T21:29:00.151Z,10.31
2023-04-18T21:31:28.914Z,10.31
2023-04-18T21:33:56.489Z,10.28
2023-04-18T21:36:24.430Z,10.23
2023-04-18T21:38:51.954Z,10.20
2023-04-18T21:41:19.244Z,10.20
2023-04-18T21:43:46.497Z,10.17
2023-04-18T21:46:14.296Z,10.17
2023-04-18T21:48:41.944Z,10.18
2023-04-18T21:51:09.534Z,10.18
2023-04-18T21:53:37.353Z,10.19
2023-04-18T21:56:04.795Z,10.18
2023-04-18T21:58:31.949Z,10.18
2023-04-18T22:00:58.981Z,10.18
2023-04-18T22:03:26.943Z,10.17
2023-04-18T22:05:57.300Z,10.17
2023-04-18T22:08:27.740Z,10.18
2023-04-18T22:10:55.521Z,10.18
2023-04-18T22:13:22.957Z,10.16
2023-04-18T22:15:50.915Z,10.21
2023-04-18T22:18:18.431Z,10.23
2023-04-18T22:20:46.313Z,10.24
2023-04-18T22:23:13.522Z,10.24
2023-04-18T22:25:40.473Z,10.24
2023-04-18T22:28:07.297Z,10.22
2023-04-18T22:30:34.232Z,10.22
2023-04-18T22:33:01.366Z,10.23
2023-04-18T22:35:28.527Z,10.24
2023-04-18T22:37:55.386Z,10.25
2023-04-18T22:40:22.316Z,10.27
2023-04-18T22:42:51.309Z,10.29
2023-04-18T22:45:18.847Z,10.29
2023-04-18T22:47:46.278Z,10.29
2023-04-18T22:50:13.555Z,10.30
2023-04-18T22:52:40.745Z,10.32
2023-04-18T22:55:08.258Z,10.33
2023-04-18T22:57:35.567Z,10.34
2023-04-18T23:00:04.334Z,10.35
2023-04-18T23:02:31.514Z,10.34
2023-04-18T23:04:59.226Z,10.34
2023-04-18T23:07:26.184Z,10.33
2023-04-18T23:09:53.077Z,10.33
2023-04-18T23:12:20.427Z,10.32
2023-04-18T23:14:47.542Z,10.31
2023-04-18T23:17:15.037Z,10.29
2023-04-18T23:19:41.956Z,10.25
2023-04-18T23:22:08.795Z,10.23
2023-04-18T23:24:35.664Z,10.22
2023-04-18T23:27:02.590Z,10.19
2023-04-18T23:29:29.516Z,10.19
2023-04-18T23:31:56.463Z,10.16
2023-04-18T23:34:23.406Z,10.16
2023-04-18T23:36:50.259Z,10.13
2023-04-18T23:39:17.995Z,10.12
2023-04-18T23:41:45.088Z,10.10
2023-04-18T23:44:12.032Z,10.09
2023-04-18T23:46:38.929Z,10.08
2023-04-18T23:49:05.822Z,10.01
2023-04-18T23:51:32.727Z,9.97
2023-04-18T23:53:59.658Z,9.92
2023-04-18T23:56:26.932Z,9.88
2023-04-18T23:58:53.865Z,9.84
